Time;durP1;ratioP1;P1;durP2;ratioP2;P2;SDS_P1;SDS_P2;PMS_P1;PMS_P2;Temp;Humidity;BMP_temperature;BMP_pressure;BME280_temperature;BME280_humidity;BME280_pressure;Samples;Min_cycle;Max_cycle;Signal;HPM_P1;HPM_P2
2022/10/17 00:01:41;;;;;;;9.45;7.28;;;15.50;99.90;;;;;;5061050;28;20340;-64
2022/10/17 00:04:06;;;;;;;10.82;7.80;;;15.50;99.90;;;;;;5061916;28;20047;-64
2022/10/17 00:06:32;;;;;;;9.50;7.30;;;15.50;99.90;;;;;;5063478;28;20044;-64
2022/10/17 00:08:57;;;;;;;9.75;7.88;;;15.50;99.90;;;;;;5062811;28;20068;-64
2022/10/17 00:11:23;;;;;;;10.68;7.95;;;15.50;99.90;;;;;;5063539;28;20025;-64
2022/10/17 00:13:52;;;;;;;11.32;8.07;;;15.50;99.90;;;;;;5063382;28;20064;-64
2022/10/17 00:16:26;;;;;;;9.63;7.75;;;15.50;99.90;;;;;;5061884;28;20908;-64
2022/10/17 00:18:51;;;;;;;12.07;8.70;;;15.50;99.90;;;;;;5059406;28;20102;-63
2022/10/17 00:21:18;;;;;;;13.90;7.97;;;15.50;99.90;;;;;;5062138;28;20063;-64
2022/10/17 00:23:45;;;;;;;12.80;8.45;;;15.50;99.90;;;;;;5060831;28;20048;-64
2022/10/17 00:26:11;;;;;;;14.25;9.48;;;15.50;99.90;;;;;;5062885;28;20051;-64
2022/10/17 00:28:36;;;;;;;13.25;8.52;;;15.50;99.90;;;;;;5063049;28;20026;-64
2022/10/17 00:31:05;;;;;;;13.18;8.82;;;15.50;99.90;;;;;;5060872;28;20132;-64
2022/10/17 00:33:32;;;;;;;11.05;8.50;;;15.50;99.90;;;;;;5063399;28;20037;-64
2022/10/17 00:36:09;;;;;;;13.77;9.55;;;15.50;99.90;;;;;;5062687;28;20036;-64
2022/10/17 00:38:36;;;;;;;11.57;9.05;;;15.50;99.90;;;;;;5059623;28;20039;-64
2022/10/17 00:41:02;;;;;;;11.60;9.15;;;15.60;99.90;;;;;;5060888;28;20040;-64
2022/10/17 00:43:28;;;;;;;13.60;8.85;;;15.60;99.90;;;;;;5062905;28;20036;-64
2022/10/17 00:45:55;;;;;;;16.20;9.57;;;15.60;99.90;;;;;;5062667;28;20720;-64
2022/10/17 00:48:22;;;;;;;14.02;9.38;;;15.50;99.90;;;;;;5062740;28;20140;-64
2022/10/17 00:50:48;;;;;;;12.38;9.48;;;15.50;99.90;;;;;;5059471;28;20404;-64
2022/10/17 00:53:15;;;;;;;10.60;8.65;;;15.60;99.90;;;;;;5060456;28;20671;-64
2022/10/17 00:55:48;;;;;;;13.10;9.52;;;15.50;99.90;;;;;;5062708;28;20459;-64
2022/10/17 00:58:15;;;;;;;13.50;10.05;;;15.50;99.90;;;;;;5059299;28;20189;-64
2022/10/17 01:00:42;;;;;;;16.77;9.45;;;15.50;99.90;;;;;;5061283;28;20037;-64
2022/10/17 01:03:08;;;;;;;10.07;8.82;;;15.60;99.90;;;;;;5056498;28;20048;-64
2022/10/17 01:05:34;;;;;;;12.05;9.45;;;15.50;99.90;;;;;;5061579;28;20048;-64
2022/10/17 01:08:00;;;;;;;11.95;9.48;;;15.60;99.90;;;;;;5061827;28;20049;-64
2022/10/17 01:10:51;;;;;;;15.68;9.88;;;15.50;99.90;;;;;;5062506;28;20067;-64
2022/10/17 01:13:47;;;;;;;13.63;9.73;;;15.60;99.90;;;;;;5061914;28;20109;-64
2022/10/17 01:16:24;;;;;;;12.90;8.70;;;15.60;99.90;;;;;;5060141;28;20121;-64
2022/10/17 01:19:22;;;;;;;13.15;9.30;;;15.60;99.90;;;;;;5059446;28;20044;-64
2022/10/17 01:22:09;;;;;;;11.73;9.27;;;15.60;99.90;;;;;;5062425;28;20037;-64
2022/10/17 01:25:02;;;;;;;11.75;8.73;;;15.60;99.90;;;;;;5060970;28;20033;-64
2022/10/17 01:27:46;;;;;;;12.60;9.87;;;15.60;99.90;;;;;;5082020;28;20043;-64
2022/10/17 01:30:51;;;;;;;12.15;9.57;;;15.60;99.90;;;;;;5080323;28;20343;-64
2022/10/17 01:33:33;;;;;;;12.93;9.73;;;15.60;99.90;;;;;;5041840;28;20044;-64
2022/10/17 01:36:10;;;;;;;13.32;9.40;;;15.60;99.90;;;;;;5080985;28;20036;-64
2022/10/17 01:38:52;;;;;;;10.85;9.55;;;15.60;99.90;;;;;;5082310;28;20024;-64
2022/10/17 01:41:30;;;;;;;12.68;10.00;;;15.60;99.90;;;;;;5080160;28;20032;-64
2022/10/17 01:44:13;;;;;;;15.05;9.65;;;15.60;99.90;;;;;;5080990;28;20076;-64
2022/10/17 01:46:42;;;;;;;15.00;9.50;;;15.50;99.90;;;;;;5079131;28;20479;-64
2022/10/17 01:49:11;;;;;;;11.82;9.57;;;15.60;99.90;;;;;;5078818;28;20913;-64
2022/10/17 01:51:55;;;;;;;13.68;9.15;;;15.60;99.90;;;;;;5082202;28;20093;-64
2022/10/17 01:54:28;;;;;;;11.85;9.00;;;15.60;99.90;;;;;;5081109;28;20123;-64
2022/10/17 01:56:59;;;;;;;14.45;8.77;;;15.60;99.90;;;;;;5081643;28;20032;-64
2022/10/17 01:59:31;;;;;;;12.38;8.55;;;15.50;99.90;;;;;;5079352;28;20024;-64
2022/10/17 02:01:58;;;;;;;13.65;9.02;;;15.60;99.90;;;;;;5079763;28;20036;-64
2022/10/17 02:04:25;;;;;;;13.00;9.27;;;15.60;99.90;;;;;;5078573;28;20036;-64
2022/10/17 02:06:50;;;;;;;13.70;9.68;;;15.60;99.90;;;;;;5081274;28;20028;-64
2022/10/17 02:09:22;;;;;;;11.90;9.13;;;15.60;99.90;;;;;;5079313;28;20043;-64
2022/10/17 02:12:11;;;;;;;10.52;9.15;;;15.60;99.90;;;;;;5081178;28;20119;-63
2022/10/17 02:14:52;;;;;;;14.75;9.32;;;15.60;99.90;;;;;;5079796;28;20111;-64
2022/10/17 02:17:56;;;;;;;14.98;9.40;;;15.50;99.90;;;;;;5080873;28;20123;-64
2022/10/17 02:21:00;;;;;;;10.65;9.05;;;15.60;99.90;;;;;;5077851;28;20048;-64
2022/10/17 02:24:03;;;;;;;11.82;8.88;;;15.60;99.90;;;;;;5080811;28;20046;-64
2022/10/17 02:26:40;;;;;;;14.75;9.23;;;15.50;99.90;;;;;;5074430;28;20409;-64
2022/10/17 02:29:17;;;;;;;16.13;9.10;;;15.60;99.90;;;;;;5081273;28;20028;-64
2022/10/17 02:31:47;;;;;;;11.40;8.65;;;15.60;99.90;;;;;;5079084;28;20043;-64
2022/10/17 02:34:26;;;;;;;11.52;9.30;;;15.60;99.90;;;;;;5062773;28;20103;-64
2022/10/17 02:36:57;;;;;;;13.60;9.57;;;15.60;99.90;;;;;;5078168;28;20424;-64
2022/10/17 02:39:26;;;;;;;11.98;9.80;;;15.60;99.90;;;;;;5080396;28;20038;-64
2022/10/17 02:41:53;;;;;;;12.43;9.23;;;15.60;99.90;;;;;;5080978;28;20663;-64
2022/10/17 02:44:20;;;;;;;12.73;9.05;;;15.60;99.90;;;;;;5063040;28;20058;-64
2022/10/17 02:46:52;;;;;;;13.80;9.50;;;15.70;99.90;;;;;;5080936;28;20454;-64
2022/10/17 02:49:38;;;;;;;14.25;9.20;;;15.70;99.90;;;;;;5080762;28;20506;-64
2022/10/17 02:52:19;;;;;;;12.07;8.93;;;15.60;99.90;;;;;;5079111;28;20043;-64
2022/10/17 02:55:09;;;;;;;12.32;8.80;;;15.60;99.90;;;;;;5077689;28;20403;-64
2022/10/17 02:57:42;;;;;;;20.15;9.20;;;15.60;99.90;;;;;;5079992;28;20475;-64
2022/10/17 03:00:13;;;;;;;16.08;8.93;;;15.60;99.90;;;;;;5077852;28;20240;-64
2022/10/17 03:02:41;;;;;;;11.68;9.27;;;15.60;99.90;;;;;;5081142;28;20044;-64
2022/10/17 03:05:08;;;;;;;13.18;8.85;;;15.60;99.90;;;;;;5078749;28;20052;-64
2022/10/17 03:07:34;;;;;;;11.50;8.68;;;15.60;99.90;;;;;;5080961;28;20035;-63
2022/10/17 03:09:59;;;;;;;11.23;9.20;;;15.60;99.90;;;;;;5079234;28;20519;-64
2022/10/17 03:12:25;;;;;;;13.25;9.20;;;15.60;99.90;;;;;;5081789;28;20419;-64
2022/10/17 03:14:50;;;;;;;12.55;8.75;;;15.60;99.90;;;;;;5079965;28;20035;-64
2022/10/17 03:17:16;;;;;;;11.63;9.20;;;15.70;99.90;;;;;;5080254;28;20028;-64
2022/10/17 03:19:41;;;;;;;11.82;8.77;;;15.70;99.90;;;;;;5081301;28;20051;-64
2022/10/17 03:22:07;;;;;;;12.75;9.10;;;15.60;99.90;;;;;;5078296;28;20040;-64
2022/10/17 03:24:33;;;;;;;12.98;9.32;;;15.60;99.90;;;;;;5084175;28;20371;-64
2022/10/17 03:26:58;;;;;;;14.32;9.02;;;15.70;99.90;;;;;;5066430;28;20028;-64
2022/10/17 03:29:24;;;;;;;13.00;8.70;;;15.70;99.90;;;;;;5081307;28;20036;-64
2022/10/17 03:31:50;;;;;;;11.23;9.13;;;15.70;99.90;;;;;;5085216;28;20039;-64
2022/10/17 03:34:17;;;;;;;12.00;8.52;;;15.60;99.90;;;;;;5084407;28;20035;-64
2022/10/17 03:36:43;;;;;;;12.25;8.75;;;15.70;99.90;;;;;;5083201;28;20483;-64
2022/10/17 03:39:09;;;;;;;11.85;8.57;;;15.60;99.90;;;;;;5083083;28;20028;-64
2022/10/17 03:41:34;;;;;;;11.20;8.23;;;15.60;99.90;;;;;;5084868;28;20031;-64
2022/10/17 03:44:00;;;;;;;11.23;8.75;;;15.70;99.90;;;;;;5082897;28;20128;-64
2022/10/17 03:46:26;;;;;;;12.90;8.85;;;15.70;99.90;;;;;;5082184;28;20032;-64
2022/10/17 03:48:51;;;;;;;16.73;8.82;;;15.60;99.90;;;;;;5084002;28;20036;-64
2022/10/17 03:51:17;;;;;;;14.15;8.57;;;15.70;99.90;;;;;;5083357;28;20036;-64
2022/10/17 03:53:42;;;;;;;15.38;9.10;;;15.60;99.90;;;;;;5085105;28;20032;-64
2022/10/17 03:56:10;;;;;;;14.02;8.48;;;15.60;99.90;;;;;;5083060;28;20127;-64
2022/10/17 03:58:36;;;;;;;13.23;9.18;;;15.60;99.90;;;;;;5083718;28;20039;-64
2022/10/17 04:01:06;;;;;;;10.85;8.27;;;15.60;99.90;;;;;;5080274;28;20551;-64
2022/10/17 04:03:32;;;;;;;10.55;8.70;;;15.60;99.90;;;;;;5084464;28;20036;-64
2022/10/17 04:05:59;;;;;;;11.52;8.52;;;15.70;99.90;;;;;;5082269;28;20039;-64
2022/10/17 04:08:25;;;;;;;9.50;8.25;;;15.70;99.90;;;;;;5083804;28;20570;-64
2022/10/17 04:10:51;;;;;;;12.77;8.05;;;15.60;99.90;;;;;;5081857;28;20432;-64
2022/10/17 04:13:17;;;;;;;11.13;8.38;;;15.60;99.90;;;;;;5090386;28;20028;-64
2022/10/17 04:16:03;;;;;;;15.95;8.57;;;15.60;99.90;;;;;;5068126;28;20028;-64
2022/10/17 04:18:29;;;;;;;13.10;7.90;;;15.70;99.90;;;;;;5081437;28;20020;-64
2022/10/17 04:20:54;;;;;;;13.20;8.60;;;15.70;99.90;;;;;;5082086;28;20098;-64
2022/10/17 04:23:20;;;;;;;12.05;7.85;;;15.70;99.90;;;;;;5083024;28;20108;-64
2022/10/17 04:25:46;;;;;;;13.30;8.23;;;15.70;99.90;;;;;;5083898;28;20127;-64
2022/10/17 04:28:11;;;;;;;11.32;7.75;;;15.70;99.90;;;;;;5083316;28;20135;-64
2022/10/17 04:30:37;;;;;;;10.20;7.43;;;15.70;99.90;;;;;;5080803;28;20035;-64
2022/10/17 04:33:03;;;;;;;11.55;8.32;;;15.70;99.90;;;;;;5080930;28;20028;-64
2022/10/17 04:35:28;;;;;;;14.27;8.13;;;15.80;99.90;;;;;;5081721;28;20228;-64
2022/10/17 04:37:54;;;;;;;11.57;8.07;;;15.80;99.90;;;;;;5083318;28;20463;-64
2022/10/17 04:40:20;;;;;;;13.00;8.20;;;15.80;99.90;;;;;;5082507;28;20123;-64
2022/10/17 04:42:45;;;;;;;10.75;7.75;;;15.80;99.90;;;;;;5083142;28;20115;-64
2022/10/17 04:45:11;;;;;;;10.13;8.25;;;15.80;99.90;;;;;;5080074;28;20043;-64
2022/10/17 04:47:36;;;;;;;13.52;8.25;;;15.80;99.90;;;;;;5083769;28;20591;-64
2022/10/17 04:50:03;;;;;;;12.77;8.68;;;15.90;99.90;;;;;;5065565;28;20028;-64
2022/10/17 04:52:29;;;;;;;12.05;7.50;;;15.90;99.90;;;;;;5083068;28;20036;-64
2022/10/17 04:54:54;;;;;;;9.50;7.20;;;15.80;99.90;;;;;;5081181;28;20422;-64
2022/10/17 04:57:20;;;;;;;10.82;7.50;;;15.80;99.90;;;;;;5083741;28;20435;-64
2022/10/17 04:59:45;;;;;;;8.55;7.72;;;15.90;99.90;;;;;;5083093;28;20599;-64
2022/10/17 05:02:11;;;;;;;10.60;7.63;;;15.90;99.90;;;;;;5080703;28;20036;-64
2022/10/17 05:04:36;;;;;;;11.13;7.53;;;15.90;99.90;;;;;;5083194;28;20111;-64
2022/10/17 05:07:02;;;;;;;9.15;7.53;;;15.90;99.90;;;;;;5081271;28;20040;-64
2022/10/17 05:09:29;;;;;;;11.27;7.60;;;15.90;99.90;;;;;;5081578;28;20024;-64
2022/10/17 05:11:54;;;;;;;15.45;7.28;;;15.90;99.90;;;;;;5066917;28;20062;-64
2022/10/17 05:14:20;;;;;;;9.70;7.20;;;15.90;99.90;;;;;;5077813;28;20503;-64
2022/10/17 05:16:46;;;;;;;9.70;7.50;;;15.90;99.90;;;;;;5079622;28;20020;-64
2022/10/17 05:19:12;;;;;;;10.98;7.70;;;15.90;99.90;;;;;;5076669;28;20131;-64
2022/10/17 05:21:37;;;;;;;11.55;8.00;;;16.00;99.90;;;;;;5079327;28;20113;-64
2022/10/17 05:24:07;;;;;;;12.63;7.38;;;16.00;99.90;;;;;;5078215;28;20032;-64
2022/10/17 05:26:33;;;;;;;10.77;7.70;;;16.00;99.90;;;;;;5076564;28;20043;-64
2022/10/17 05:29:01;;;;;;;11.35;7.57;;;16.00;99.90;;;;;;5080082;28;20032;-64
2022/10/17 05:31:28;;;;;;;12.85;7.07;;;16.00;99.90;;;;;;5081981;28;20043;-64
2022/10/17 05:33:54;;;;;;;9.45;7.25;;;16.00;99.90;;;;;;5079308;28;20044;-64
2022/10/17 05:36:20;;;;;;;10.93;7.85;;;16.00;99.90;;;;;;5081402;28;20375;-64
2022/10/17 05:38:51;;;;;;;10.18;7.55;;;16.00;99.90;;;;;;5080593;28;20479;-64
2022/10/17 05:41:18;;;;;;;12.65;7.85;;;16.00;99.90;;;;;;5079820;28;20154;-64
2022/10/17 05:43:44;;;;;;;11.57;8.02;;;16.00;99.90;;;;;;5080871;28;20352;-63
2022/10/17 05:46:10;;;;;;;13.63;7.68;;;16.00;99.90;;;;;;5080063;28;20043;-63
2022/10/17 05:48:36;;;;;;;10.20;7.43;;;15.90;99.90;;;;;;5078291;28;20085;-64
2022/10/17 05:51:05;;;;;;;11.15;7.65;;;15.90;99.90;;;;;;5064438;28;20028;-64
2022/10/17 05:53:32;;;;;;;11.65;7.38;;;15.90;99.90;;;;;;5079603;28;20060;-64
2022/10/17 05:55:59;;;;;;;9.70;7.30;;;15.90;99.90;;;;;;5079996;28;20070;-64
2022/10/17 05:58:26;;;;;;;11.95;7.20;;;15.90;99.90;;;;;;5079000;28;20111;-64
2022/10/17 06:00:56;;;;;;;8.65;6.80;;;15.90;99.90;;;;;;5074067;28;20115;-64
2022/10/17 06:03:21;;;;;;;11.02;7.00;;;15.90;99.90;;;;;;5079136;28;20047;-64
2022/10/17 06:05:47;;;;;;;15.13;7.35;;;15.90;99.90;;;;;;5079765;28;20040;-64
2022/10/17 06:08:12;;;;;;;12.18;8.15;;;16.00;99.90;;;;;;5076731;28;20477;-64
2022/10/17 06:10:38;;;;;;;13.93;7.50;;;16.00;99.90;;;;;;5077287;28;20047;-63
2022/10/17 06:13:03;;;;;;;10.23;7.25;;;16.10;99.90;;;;;;5066421;28;20042;-64
2022/10/17 06:15:29;;;;;;;11.20;7.25;;;16.10;99.90;;;;;;5058307;28;20112;-65
2022/10/17 06:17:54;;;;;;;13.80;7.38;;;16.00;99.90;;;;;;5057001;28;20016;-65
2022/10/17 06:20:20;;;;;;;9.80;7.20;;;16.10;99.90;;;;;;5071343;28;20037;-65
2022/10/17 06:22:46;;;;;;;14.45;7.90;;;16.00;99.90;;;;;;5077436;28;20437;-64
2022/10/17 06:25:11;;;;;;;10.88;7.32;;;16.10;99.90;;;;;;5064564;28;20052;-64
2022/10/17 06:27:37;;;;;;;11.60;7.55;;;16.10;99.90;;;;;;5075360;28;20263;-64
2022/10/17 06:30:03;;;;;;;13.45;7.20;;;16.10;99.90;;;;;;5061171;28;20169;-64
2022/10/17 06:32:28;;;;;;;13.30;7.82;;;16.10;99.90;;;;;;5074978;28;20084;-64
2022/10/17 06:34:54;;;;;;;11.75;7.40;;;16.10;99.90;;;;;;5078580;28;20093;-65
2022/10/17 06:37:19;;;;;;;12.18;7.72;;;16.10;99.90;;;;;;5077542;28;20032;-64
2022/10/17 06:39:45;;;;;;;11.13;7.25;;;16.20;99.90;;;;;;5077373;28;20035;-64
2022/10/17 06:42:10;;;;;;;9.82;7.13;;;16.20;99.90;;;;;;5077970;28;20035;-64
2022/10/17 06:44:36;;;;;;;16.48;7.15;;;16.20;99.90;;;;;;5078380;28;20126;-65
2022/10/17 06:47:02;;;;;;;10.77;7.32;;;16.20;99.90;;;;;;5059341;28;20177;-65
2022/10/17 06:49:28;;;;;;;12.10;7.43;;;16.20;99.90;;;;;;5073778;28;20043;-65
2022/10/17 06:51:53;;;;;;;11.35;6.95;;;16.20;99.90;;;;;;5067429;28;20040;-64
2022/10/17 06:54:19;;;;;;;14.02;7.55;;;16.30;99.90;;;;;;5080335;28;20030;-64
2022/10/17 06:56:44;;;;;;;11.82;7.63;;;16.30;99.90;;;;;;5061687;28;20055;-64
2022/10/17 06:59:10;;;;;;;10.88;7.03;;;16.30;99.90;;;;;;5070399;28;20172;-65
2022/10/17 07:01:36;;;;;;;11.00;6.72;;;16.30;99.90;;;;;;5074275;28;20044;-65
2022/10/17 07:04:01;;;;;;;12.38;7.15;;;16.30;99.90;;;;;;5074893;28;20067;-65
2022/10/17 07:06:27;;;;;;;10.48;6.90;;;16.50;99.90;;;;;;5074683;28;20052;-64
2022/10/17 07:08:54;;;;;;;13.43;7.55;;;16.50;99.90;;;;;;5077135;28;20415;-64
2022/10/17 07:11:21;;;;;;;14.25;7.20;;;16.60;99.90;;;;;;5072599;28;20462;-64
2022/10/17 07:13:47;;;;;;;11.57;7.30;;;16.60;99.90;;;;;;5069339;28;20437;-64
2022/10/17 07:16:14;;;;;;;12.35;7.20;;;16.60;99.90;;;;;;5072365;28;20490;-64
2022/10/17 07:18:41;;;;;;;10.02;7.20;;;16.60;99.90;;;;;;5074638;28;20059;-65
2022/10/17 07:21:07;;;;;;;10.85;7.30;;;16.80;99.90;;;;;;5066568;28;20508;-65
2022/10/17 07:23:35;;;;;;;13.07;7.18;;;16.80;99.90;;;;;;5055851;28;20395;-64
2022/10/17 07:26:05;;;;;;;7.90;6.95;;;16.80;99.90;;;;;;5073278;28;20524;-65
2022/10/17 07:28:32;;;;;;;12.68;7.70;;;16.90;99.90;;;;;;5073768;28;20036;-65
2022/10/17 07:31:03;;;;;;;10.63;7.28;;;16.90;99.90;;;;;;5076217;28;20135;-64
2022/10/17 07:33:28;;;;;;;11.70;6.50;;;17.00;99.90;;;;;;5073424;28;20574;-65
2022/10/17 07:35:56;;;;;;;14.13;6.93;;;17.00;99.90;;;;;;5073580;28;20036;-64
2022/10/17 07:38:22;;;;;;;9.85;6.25;;;17.00;99.90;;;;;;5060523;28;20055;-64
2022/10/17 07:40:56;;;;;;;9.02;6.50;;;17.50;99.90;;;;;;5075499;28;20030;-65
2022/10/17 07:43:26;;;;;;;12.13;6.50;;;17.10;99.90;;;;;;5059839;28;20088;-64
2022/10/17 07:45:52;;;;;;;10.18;6.38;;;17.20;99.90;;;;;;5075448;28;20040;-65
2022/10/17 07:48:19;;;;;;;11.38;6.20;;;17.20;99.90;;;;;;5060179;28;20119;-64
2022/10/17 07:50:45;;;;;;;9.57;6.63;;;17.30;99.90;;;;;;5074889;28;20040;-65
2022/10/17 07:53:10;;;;;;;9.45;6.35;;;16.60;99.90;;;;;;5065404;28;20028;-65
2022/10/17 07:55:37;;;;;;;10.52;6.13;;;18.40;99.90;;;;;;5072652;28;20052;-65
2022/10/17 07:58:02;;;;;;;10.32;6.30;;;17.50;99.90;;;;;;5059604;28;20508;-66
2022/10/17 08:00:28;;;;;;;13.07;6.50;;;17.60;99.90;;;;;;5078379;28;20041;-64
2022/10/17 08:02:54;;;;;;;11.20;6.05;;;17.60;99.90;;;;;;5079685;28;20090;-65
2022/10/17 08:05:19;;;;;;;10.90;6.15;;;17.70;99.90;;;;;;5077492;28;20030;-64
2022/10/17 08:07:45;;;;;;;9.52;5.63;;;17.80;99.90;;;;;;5077854;28;20364;-64
2022/10/17 08:10:12;;;;;;;16.00;5.95;;;17.80;99.90;;;;;;5076959;28;20175;-65
2022/10/17 08:12:38;;;;;;;16.90;5.90;;;17.80;99.90;;;;;;5082451;28;20484;-65
2022/10/17 08:15:05;;;;;;;7.70;5.60;;;17.90;99.90;;;;;;5076950;28;20050;-64
2022/10/17 08:17:32;;;;;;;10.48;5.10;;;18.00;99.90;;;;;;5074444;28;20040;-64
2022/10/17 08:19:58;;;;;;;8.70;5.82;;;18.00;99.90;;;;;;5081848;28;20036;-63
2022/10/17 08:22:23;;;;;;;9.13;5.10;;;18.20;99.90;;;;;;5075435;28;20070;-63
2022/10/17 08:24:49;;;;;;;7.38;5.53;;;18.30;99.90;;;;;;5079857;28;20032;-64
2022/10/17 08:27:20;;;;;;;7.00;4.93;;;18.30;99.90;;;;;;5066036;28;20081;-64
2022/10/17 08:29:47;;;;;;;10.82;4.80;;;18.30;99.90;;;;;;5061007;28;20032;-63
2022/10/17 08:32:13;;;;;;;9.70;5.43;;;18.30;99.90;;;;;;5081060;28;20032;-63
2022/10/17 08:34:38;;;;;;;11.65;5.07;;;18.30;99.90;;;;;;5078650;28;20340;-63
2022/10/17 08:37:04;;;;;;;9.52;4.43;;;18.50;99.90;;;;;;5077739;28;20032;-63
2022/10/17 08:39:29;;;;;;;8.82;4.80;;;18.30;99.90;;;;;;5075371;28;20125;-63
2022/10/17 08:42:13;;;;;;;8.98;5.20;;;18.40;99.90;;;;;;5068931;28;20115;-63
2022/10/17 08:44:44;;;;;;;;;;;18.40;99.90;;;;;;5079208;28;20740;-63
2022/10/17 08:47:13;;;;;;;9.45;5.32;;;18.50;99.90;;;;;;5079371;28;19934;-64
2022/10/17 08:49:47;;;;;;;11.43;5.03;;;18.50;99.90;;;;;;5079625;28;20123;-63
2022/10/17 08:52:38;;;;;;;11.80;5.38;;;18.50;99.90;;;;;;5076399;28;20374;-64
2022/10/17 08:55:14;;;;;;;10.13;5.60;;;18.60;99.90;;;;;;5066131;28;20043;-65
2022/10/17 08:57:39;;;;;;;7.05;5.68;;;18.50;99.90;;;;;;5081481;28;20036;-64
2022/10/17 09:00:17;;;;;;;7.53;4.65;;;18.70;99.90;;;;;;5079494;28;20039;-64
2022/10/17 09:03:04;;;;;;;9.93;5.35;;;18.80;99.90;;;;;;5065471;28;20028;-65
2022/10/17 09:05:33;;;;;;;12.20;5.75;;;18.90;99.90;;;;;;5075700;28;20857;-64
2022/10/17 09:08:05;;;;;;;12.48;5.25;;;19.60;99.90;;;;;;5068987;28;20136;-63
2022/10/17 09:10:52;;;;;;;11.40;5.35;;;18.90;99.90;;;;;;5080945;28;20031;-63
2022/10/17 09:13:47;;;;;;;10.27;5.05;;;18.90;99.90;;;;;;5069447;28;20695;-63
2022/10/17 09:16:51;;;;;;;8.98;5.03;;;19.00;99.90;;;;;;5079516;28;20035;-65
2022/10/17 09:19:29;;;;;;;8.23;4.55;;;18.90;99.90;;;;;;5065601;28;20055;-64
2022/10/17 09:22:03;;;;;;;7.88;5.07;;;19.00;99.90;;;;;;5060800;28;20032;-63
2022/10/17 09:24:43;;;;;;;10.77;5.10;;;18.90;99.90;;;;;;5076379;28;20127;-63
2022/10/17 09:27:23;;;;;;;12.13;4.40;;;18.90;99.90;;;;;;5080757;28;20048;-64
2022/10/17 09:29:53;;;;;;;8.43;4.43;;;19.00;99.90;;;;;;5074316;28;20524;-63
2022/10/17 09:32:23;;;;;;;10.57;4.75;;;18.90;99.90;;;;;;5078521;28;20040;-64
2022/10/17 09:34:48;;;;;;;8.45;4.57;;;18.90;99.90;;;;;;5078409;28;20047;-65
2022/10/17 09:37:16;;;;;;;6.82;4.47;;;18.90;99.90;;;;;;5080314;28;20032;-62
2022/10/17 09:39:42;;;;;;;9.02;5.22;;;18.90;99.90;;;;;;5060031;28;20066;-62
2022/10/17 09:42:18;;;;;;;9.90;5.13;;;19.00;99.90;;;;;;5078386;28;20049;-61
2022/10/17 09:44:53;;;;;;;11.75;5.57;;;19.00;99.90;;;;;;5078334;28;21091;-62
2022/10/17 09:47:47;;;;;;;11.07;5.15;;;19.00;99.90;;;;;;5076051;28;20080;-62
2022/10/17 09:50:27;;;;;;;9.35;5.25;;;18.90;99.90;;;;;;5073954;28;20024;-61
2022/10/17 09:52:54;;;;;;;14.98;5.03;;;18.90;99.90;;;;;;5074715;28;20356;-61
2022/10/17 09:55:51;;;;;;;10.20;4.65;;;18.70;99.90;;;;;;5079851;28;20533;-62
2022/10/17 09:58:20;;;;;;;12.30;5.88;;;18.70;99.90;;;;;;5080579;28;20024;-62
2022/10/17 10:00:47;;;;;;;7.70;4.72;;;19.00;99.90;;;;;;5076440;28;20028;-62
2022/10/17 10:03:21;;;;;;;9.30;4.35;;;18.80;99.90;;;;;;5063410;28;20051;-62
2022/10/17 10:06:04;;;;;;;10.98;4.70;;;18.90;99.90;;;;;;5077074;28;20043;-63
2022/10/17 10:08:34;;;;;;;9.18;4.72;;;19.00;99.90;;;;;;5055803;28;20043;-62
2022/10/17 10:11:03;;;;;;;12.15;4.80;;;18.90;99.90;;;;;;5054300;28;20032;-64
2022/10/17 10:13:31;;;;;;;18.45;12.48;;;18.80;99.90;;;;;;5070922;28;20047;-64
2022/10/17 10:16:16;;;;;;;24.10;17.27;;;18.80;99.90;;;;;;5074085;28;20143;-63
2022/10/17 10:18:42;;;;;;;9.35;5.47;;;18.80;99.90;;;;;;5079206;28;20466;-63
2022/10/17 10:21:12;;;;;;;9.52;5.03;;;18.90;99.90;;;;;;5075964;28;20123;-63
2022/10/17 10:23:43;;;;;;;11.38;4.88;;;19.10;99.90;;;;;;5078470;28;20078;-63
2022/10/17 10:26:18;;;;;;;8.80;5.00;;;;;;;;;;5078190;28;20036;-64
2022/10/17 10:28:55;;;;;;;9.00;4.93;;;19.20;99.90;;;;;;5064273;28;20081;-63
2022/10/17 10:31:39;;;;;;;12.65;5.10;;;19.30;99.90;;;;;;5077323;28;20120;-64
2022/10/17 10:34:25;;;;;;;11.30;4.35;;;19.30;99.90;;;;;;5080299;28;20199;-64
2022/10/17 10:36:59;;;;;;;7.47;4.72;;;19.30;99.90;;;;;;5064862;28;20111;-64
2022/10/17 10:39:33;;;;;;;9.48;4.57;;;19.20;99.90;;;;;;5078374;28;20352;-63
2022/10/17 10:42:01;;;;;;;9.95;4.75;;;19.30;99.90;;;;;;5074492;28;20452;-63
2022/10/17 10:44:29;;;;;;;8.55;4.78;;;19.30;99.90;;;;;;5065831;28;20529;-64
2022/10/17 10:47:19;;;;;;;9.52;5.13;;;19.20;99.90;;;;;;5060387;28;20832;-64
2022/10/17 10:49:46;;;;;;;9.10;4.93;;;19.60;99.90;;;;;;5078955;28;20214;-63
2022/10/17 10:52:30;;;;;;;11.85;5.30;;;19.20;99.90;;;;;;5080928;28;20428;-63
2022/10/17 10:55:23;;;;;;;7.82;4.80;;;19.10;99.90;;;;;;5081257;28;20036;-63
2022/10/17 10:57:52;;;;;;;9.07;5.15;;;19.10;99.90;;;;;;5077148;28;20040;-63
2022/10/17 11:00:23;;;;;;;9.20;4.93;;;19.00;99.90;;;;;;5079280;28;20541;-65
2022/10/17 11:03:28;;;;;;;9.38;5.22;;;19.00;99.90;;;;;;5077237;28;20532;-65
2022/10/17 11:06:20;;;;;;;8.68;5.45;;;19.00;99.90;;;;;;5080239;28;20024;-66
2022/10/17 11:09:09;;;;;;;13.27;6.50;;;18.90;99.90;;;;;;5057093;28;20029;-65
2022/10/17 11:11:41;;;;;;;12.60;6.18;;;19.00;99.90;;;;;;5078231;28;20067;-65
2022/10/17 11:14:16;;;;;;;11.70;6.60;;;19.00;99.90;;;;;;5074647;28;20036;-65
2022/10/17 11:17:09;;;;;;;16.10;6.32;;;19.00;99.90;;;;;;5072016;28;20040;-65
2022/10/17 11:19:40;;;;;;;9.50;6.78;;;18.90;99.90;;;;;;5075557;28;20518;-65
2022/10/17 11:22:08;;;;;;;10.43;6.28;;;19.20;99.90;;;;;;5077019;28;20443;-64
2022/10/17 11:24:45;;;;;;;10.98;6.78;;;19.00;99.90;;;;;;5079133;28;20036;-66
2022/10/17 11:27:10;;;;;;;9.68;6.80;;;19.10;99.90;;;;;;5077938;28;20036;-65
2022/10/17 11:29:40;;;;;;;13.13;7.47;;;19.00;99.90;;;;;;5075502;28;20081;-65
2022/10/17 11:32:16;;;;;;;10.00;6.57;;;18.70;99.90;;;;;;5078677;28;20110;-66
2022/10/17 11:34:53;;;;;;;14.30;6.95;;;19.40;99.90;;;;;;5074385;28;20035;-65
2022/10/17 11:37:27;;;;;;;12.70;6.78;;;19.70;99.90;;;;;;5077662;28;20627;-66
2022/10/17 11:39:56;;;;;;;10.68;7.32;;;19.50;99.90;;;;;;5080122;28;20526;-65
2022/10/17 11:42:30;;;;;;;10.60;6.60;;;19.50;99.90;;;;;;5076713;28;20037;-65
2022/10/17 11:45:05;;;;;;;11.48;7.22;;;19.50;99.90;;;;;;5065049;28;20031;-66
2022/10/17 11:47:57;;;;;;;12.95;6.60;;;19.20;99.90;;;;;;5083195;28;20028;-65
2022/10/17 11:50:39;;;;;;;10.77;6.88;;;19.30;99.90;;;;;;5082196;28;20024;-65
2022/10/17 11:53:16;;;;;;;10.50;6.43;;;19.30;99.90;;;;;;5077638;28;20040;-65
2022/10/17 11:55:43;;;;;;;11.52;6.55;;;19.20;99.90;;;;;;5063771;28;20032;-66
2022/10/17 11:58:30;;;;;;;12.25;6.60;;;19.30;99.90;;;;;;5082611;28;20060;-66
2022/10/17 12:01:26;;;;;;;11.25;6.38;;;19.30;99.90;;;;;;5065902;28;20044;-65
2022/10/17 12:03:59;;;;;;;10.07;6.72;;;19.30;99.90;;;;;;5077325;28;20149;-65
2022/10/17 12:06:49;;;;;;;10.10;6.70;;;19.20;99.90;;;;;;5080663;28;20081;-64
2022/10/17 12:09:58;;;;;;;8.73;5.93;;;19.30;99.90;;;;;;5082505;28;20059;-64
2022/10/17 12:12:26;;;;;;;12.45;6.10;;;19.00;99.90;;;;;;5081792;28;20206;-64
2022/10/17 12:14:53;;;;;;;9.85;5.97;;;19.10;99.90;;;;;;5079724;28;20340;-64
2022/10/17 12:17:37;;;;;;;10.10;6.45;;;19.00;99.90;;;;;;5078735;28;20087;-65
2022/10/17 12:20:24;;;;;;;11.40;6.13;;;19.00;99.90;;;;;;5067962;28;20036;-65
2022/10/17 12:22:52;;;;;;;14.45;6.47;;;18.90;99.90;;;;;;5074005;28;20037;-65
2022/10/17 12:25:29;;;;;;;12.63;6.75;;;19.00;99.90;;;;;;5079638;28;20059;-64
2022/10/17 12:28:35;;;;;;;12.88;6.60;;;19.10;99.90;;;;;;5081014;28;20043;-64
2022/10/17 12:31:04;;;;;;;9.70;6.20;;;18.90;99.90;;;;;;5073613;28;20028;-65
2022/10/17 12:33:48;;;;;;;12.00;6.03;;;19.00;99.90;;;;;;5078593;28;20440;-64
2022/10/17 12:36:26;;;;;;;11.57;5.85;;;18.80;99.90;;;;;;5079617;28;20036;-65
2022/10/17 12:39:00;;;;;;;9.57;6.80;;;19.00;99.90;;;;;;5078197;28;20499;-65
2022/10/17 12:41:52;;;;;;;10.70;6.43;;;19.00;99.90;;;;;;5077697;28;20103;-65
2022/10/17 12:44:20;;;;;;;13.77;6.43;;;19.20;99.90;;;;;;5064744;28;20035;-63
2022/10/17 12:47:12;;;;;;;9.50;5.80;;;19.10;99.90;;;;;;5078321;28;20066;-65
2022/10/17 12:49:48;;;;;;;10.90;6.05;;;19.20;99.90;;;;;;5045441;28;20216;-65
2022/10/17 12:52:30;;;;;;;13.55;6.47;;;19.30;99.90;;;;;;5078012;28;20032;-65
2022/10/17 12:54:56;;;;;;;12.32;6.22;;;;;;;;;;5075325;28;20074;-64
2022/10/17 12:57:30;;;;;;;10.25;6.10;;;19.40;99.90;;;;;;5080256;28;20160;-65
2022/10/17 12:59:56;;;;;;;11.43;6.20;;;19.70;99.90;;;;;;5073898;28;20781;-65
2022/10/17 13:02:26;;;;;;;10.63;6.32;;;19.60;99.90;;;;;;5081265;28;20123;-64
2022/10/17 13:05:04;;;;;;;13.98;6.25;;;19.60;99.90;;;;;;5078805;28;20589;-64